ADDS TAF Board (Experimental) INFO Settings
IDs: Format: Expanded Condensed

KMCO - Orlando Intl, FL, US

Issued at 0900 UTC 06 May 2016
Updated at: 0916 UTC 06 May 2016
Time0853Z 06/10Z 06/11Z 06/12Z 06/13Z 06/14Z 06/15Z 06/16Z 06/17Z 06/18Z 06/19Z 06/20Z 06/21Z 06/22Z
Type OBS PRVL PRVL PRVL PRVL PRVL PRVL PRVL PRVL PRVL PRVL PRVL PRVL PRVL
VIS 10 >6 >6 >6 >6 >6 >6 >6 >6 >6 >6 >6 >6 >6
CIG -- -- -- -- -- -- -- -- -- -- -- -- -- --
Cover CLR SKC SKC SKC SKC FEW FEW FEW FEW FEW FEW FEW FEW FEW
FltCat VFR VFR VFR VFR VFR VFR VFR VFR VFR VFR VFR VFR VFR VFR
WX -- -- -- -- -- -- -- -- -- -- -- -- -- --
WDir 220 VRB VRB VRB VRB 310 310 310 300 300 300 300 300 300
WSpd 3 4 4 4 4 12 12 12 13 13 13 13 13 13
WGst -- -- -- -- -- -- -- -- 20 20 20 20 20 20
R17/35
XWnd -2 VRB VRB VRB VRB -9 -9 -9 -11 -11 -11 -11 -11 -11
XGst -- -- -- -- -- -- -- -- -17 -17 -17 -17 -17 -17
HWnd 2 VRB VRB VRB VRB -8 -8 -8 -7 -7 -7 -7 -7 -7
HGst -- -- -- -- -- -- -- -- -10 -10 -10 -10 -10 -10
R18/36
XWnd -2 VRB VRB VRB VRB -9 -9 -9 -11 -11 -11 -11 -11 -11
XGst -- -- -- -- -- -- -- -- -17 -17 -17 -17 -17 -17
HWnd 2 VRB VRB VRB VRB -8 -8 -8 -7 -7 -7 -7 -7 -7
HGst -- -- -- -- -- -- -- -- -10 -10 -10 -10 -10 -10

NOTE: TEMPO conditions in [brackets]. Keep in mind TEMPO conditions might be better (lower impact) than prevailing conditions.

Raw TAF
KMCO 060900Z 0609/0706 VRB04KT P6SM SKC
  FM061400 31012KT P6SM FEW040
  FM061700 30013G20KT P6SM FEW050
  FM062300 28011KT P6SM SKC
  FM070200 28006KT P6SM SKC


Raw METAR
KMCO 060853Z 22003KT 10SM CLR 14/07 A2984 RMK AO2 SLP102 T01390072 55001
KMCO 060753Z 30003KT 10SM FEW080 17/06 A2983 RMK AO2 SLP100 T01670061
KMCO 060653Z 34006KT 10SM BKN075 18/08 A2983 RMK AO2 SLP100 T01780078

METAR Board
Radar Display
Forecast Discussion

TAF Board Legend

Potential Impact
Threat None Slight Moderate High
Visibility (sm) ≥5.1 5.1>X≥3 3>X≥1 <1
Ceiling (100 ft) ≥30.1 30.1>X≥10 10>X≥5 <5
Wind Speed (kt) <10 10≤X<20 20≤X<30 ≥30
Wind Gust (kt) <15 15≤X<25 25≤X<35 ≥35
Weather No Wx Reported VCTS,-TS,-FZRA,SN TS,FZRA +TS,+FZRA,+SN